sensor_id;sensor_type;location;lat;lon;timestamp;P1;durP1;ratioP1;P2;durP2;ratioP2
40701;SDS011;26387;50.114;8.662;2022-08-21T00:01:30;12.65;;;5.88;;
40701;SDS011;26387;50.114;8.662;2022-08-21T00:03:55;16.42;;;6.10;;
40701;SDS011;26387;50.114;8.662;2022-08-21T00:06:21;12.77;;;5.97;;
40701;SDS011;26387;50.114;8.662;2022-08-21T00:08:48;13.80;;;5.78;;
40701;SDS011;26387;50.114;8.662;2022-08-21T00:11:15;13.93;;;5.97;;
40701;SDS011;26387;50.114;8.662;2022-08-21T00:13:40;12.98;;;5.45;;
40701;SDS011;26387;50.114;8.662;2022-08-21T00:16:06;12.68;;;6.00;;
40701;SDS011;26387;50.114;8.662;2022-08-21T00:18:32;12.50;;;5.60;;
40701;SDS011;26387;50.114;8.662;2022-08-21T00:20:57;9.25;;;5.60;;
40701;SDS011;26387;50.114;8.662;2022-08-21T00:23:23;13.80;;;6.25;;
40701;SDS011;26387;50.114;8.662;2022-08-21T00:25:49;10.38;;;5.53;;
40701;SDS011;26387;50.114;8.662;2022-08-21T00:28:14;13.75;;;5.78;;
40701;SDS011;26387;50.114;8.662;2022-08-21T00:30:41;10.90;;;6.10;;
40701;SDS011;26387;50.114;8.662;2022-08-21T00:33:08;10.40;;;5.95;;
40701;SDS011;26387;50.114;8.662;2022-08-21T00:35:36;15.38;;;6.38;;
40701;SDS011;26387;50.114;8.662;2022-08-21T00:38:04;11.35;;;6.00;;
40701;SDS011;26387;50.114;8.662;2022-08-21T00:40:34;13.32;;;6.07;;
40701;SDS011;26387;50.114;8.662;2022-08-21T00:43:08;9.75;;;6.10;;
40701;SDS011;26387;50.114;8.662;2022-08-21T00:45:36;13.65;;;6.53;;
40701;SDS011;26387;50.114;8.662;2022-08-21T00:48:03;12.27;;;6.40;;
40701;SDS011;26387;50.114;8.662;2022-08-21T00:50:30;13.38;;;5.78;;
40701;SDS011;26387;50.114;8.662;2022-08-21T00:52:58;14.65;;;6.25;;
40701;SDS011;26387;50.114;8.662;2022-08-21T00:55:26;11.45;;;5.93;;
40701;SDS011;26387;50.114;8.662;2022-08-21T00:57:55;13.23;;;5.82;;
40701;SDS011;26387;50.114;8.662;2022-08-21T01:00:24;9.40;;;5.68;;
40701;SDS011;26387;50.114;8.662;2022-08-21T01:05:25;14.25;;;6.32;;
40701;SDS011;26387;50.114;8.662;2022-08-21T01:07:51;10.93;;;5.63;;
40701;SDS011;26387;50.114;8.662;2022-08-21T01:10:18;12.20;;;6.45;;
40701;SDS011;26387;50.114;8.662;2022-08-21T01:12:47;11.45;;;6.10;;
40701;SDS011;26387;50.114;8.662;2022-08-21T01:15:12;10.45;;;6.13;;
40701;SDS011;26387;50.114;8.662;2022-08-21T01:17:40;10.30;;;5.70;;
40701;SDS011;26387;50.114;8.662;2022-08-21T01:20:07;9.38;;;5.88;;
40701;SDS011;26387;50.114;8.662;2022-08-21T01:22:36;12.95;;;6.30;;
40701;SDS011;26387;50.114;8.662;2022-08-21T01:25:03;14.43;;;6.07;;
40701;SDS011;26387;50.114;8.662;2022-08-21T01:27:30;11.63;;;6.55;;
40701;SDS011;26387;50.114;8.662;2022-08-21T01:29:57;14.63;;;6.30;;
40701;SDS011;26387;50.114;8.662;2022-08-21T01:32:26;9.38;;;5.97;;
40701;SDS011;26387;50.114;8.662;2022-08-21T01:34:52;13.32;;;6.70;;
40701;SDS011;26387;50.114;8.662;2022-08-21T01:37:19;11.32;;;6.28;;
40701;SDS011;26387;50.114;8.662;2022-08-21T01:39:46;13.45;;;6.60;;
40701;SDS011;26387;50.114;8.662;2022-08-21T01:42:12;13.80;;;6.20;;
40701;SDS011;26387;50.114;8.662;2022-08-21T01:44:39;12.57;;;6.00;;
40701;SDS011;26387;50.114;8.662;2022-08-21T01:47:05;10.02;;;6.45;;
40701;SDS011;26387;50.114;8.662;2022-08-21T01:49:33;10.32;;;6.45;;
40701;SDS011;26387;50.114;8.662;2022-08-21T01:51:59;12.77;;;6.15;;
40701;SDS011;26387;50.114;8.662;2022-08-21T01:54:25;10.80;;;6.55;;
40701;SDS011;26387;50.114;8.662;2022-08-21T01:56:51;11.40;;;6.50;;
40701;SDS011;26387;50.114;8.662;2022-08-21T01:59:18;8.82;;;6.00;;
40701;SDS011;26387;50.114;8.662;2022-08-21T02:01:45;12.88;;;6.50;;
40701;SDS011;26387;50.114;8.662;2022-08-21T02:04:11;15.10;;;6.28;;
40701;SDS011;26387;50.114;8.662;2022-08-21T02:06:37;12.77;;;7.07;;
40701;SDS011;26387;50.114;8.662;2022-08-21T02:09:04;11.52;;;6.40;;
40701;SDS011;26387;50.114;8.662;2022-08-21T02:11:32;11.43;;;5.88;;
40701;SDS011;26387;50.114;8.662;2022-08-21T02:13:58;16.27;;;7.35;;
40701;SDS011;26387;50.114;8.662;2022-08-21T02:16:24;10.15;;;6.22;;
40701;SDS011;26387;50.114;8.662;2022-08-21T02:18:49;9.18;;;5.78;;
40701;SDS011;26387;50.114;8.662;2022-08-21T02:21:15;11.65;;;7.10;;
40701;SDS011;26387;50.114;8.662;2022-08-21T02:23:41;11.70;;;6.47;;
40701;SDS011;26387;50.114;8.662;2022-08-21T02:26:07;16.13;;;6.70;;
40701;SDS011;26387;50.114;8.662;2022-08-21T02:28:33;12.98;;;6.35;;
40701;SDS011;26387;50.114;8.662;2022-08-21T02:30:59;14.80;;;6.82;;
40701;SDS011;26387;50.114;8.662;2022-08-21T02:33:26;9.43;;;5.90;;
40701;SDS011;26387;50.114;8.662;2022-08-21T02:35:52;12.05;;;6.10;;
40701;SDS011;26387;50.114;8.662;2022-08-21T02:38:19;18.02;;;7.28;;
40701;SDS011;26387;50.114;8.662;2022-08-21T02:40:50;10.48;;;6.38;;
40701;SDS011;26387;50.114;8.662;2022-08-21T02:43:17;12.13;;;5.97;;
40701;SDS011;26387;50.114;8.662;2022-08-21T02:45:44;10.68;;;6.18;;
40701;SDS011;26387;50.114;8.662;2022-08-21T02:48:12;13.40;;;6.25;;
40701;SDS011;26387;50.114;8.662;2022-08-21T02:50:47;13.77;;;6.35;;
40701;SDS011;26387;50.114;8.662;2022-08-21T02:53:16;13.95;;;6.28;;
40701;SDS011;26387;50.114;8.662;2022-08-21T02:55:43;13.35;;;6.50;;
40701;SDS011;26387;50.114;8.662;2022-08-21T02:58:10;12.05;;;6.35;;
40701;SDS011;26387;50.114;8.662;2022-08-21T03:00:36;14.80;;;7.55;;
40701;SDS011;26387;50.114;8.662;2022-08-21T03:03:02;10.63;;;6.07;;
40701;SDS011;26387;50.114;8.662;2022-08-21T03:05:29;10.00;;;6.50;;
40701;SDS011;26387;50.114;8.662;2022-08-21T03:07:56;15.88;;;6.90;;
40701;SDS011;26387;50.114;8.662;2022-08-21T03:10:23;11.18;;;6.22;;
40701;SDS011;26387;50.114;8.662;2022-08-21T03:12:50;13.52;;;6.78;;
40701;SDS011;26387;50.114;8.662;2022-08-21T03:15:17;17.10;;;6.70;;
40701;SDS011;26387;50.114;8.662;2022-08-21T03:17:44;11.93;;;6.63;;
40701;SDS011;26387;50.114;8.662;2022-08-21T03:20:12;12.50;;;6.10;;
40701;SDS011;26387;50.114;8.662;2022-08-21T03:22:39;16.20;;;6.95;;
40701;SDS011;26387;50.114;8.662;2022-08-21T03:25:05;13.65;;;6.90;;
40701;SDS011;26387;50.114;8.662;2022-08-21T03:27:31;13.13;;;7.55;;
40701;SDS011;26387;50.114;8.662;2022-08-21T03:29:58;14.30;;;7.25;;
40701;SDS011;26387;50.114;8.662;2022-08-21T03:32:24;18.63;;;6.97;;
40701;SDS011;26387;50.114;8.662;2022-08-21T03:34:50;12.35;;;7.25;;
40701;SDS011;26387;50.114;8.662;2022-08-21T03:37:15;14.80;;;7.18;;
40701;SDS011;26387;50.114;8.662;2022-08-21T03:39:45;12.63;;;7.22;;
40701;SDS011;26387;50.114;8.662;2022-08-21T03:42:11;11.93;;;7.28;;
40701;SDS011;26387;50.114;8.662;2022-08-21T03:44:36;16.35;;;7.50;;
40701;SDS011;26387;50.114;8.662;2022-08-21T03:47:04;11.45;;;6.78;;
40701;SDS011;26387;50.114;8.662;2022-08-21T03:49:30;10.23;;;6.55;;
40701;SDS011;26387;50.114;8.662;2022-08-21T03:51:56;17.75;;;7.00;;
40701;SDS011;26387;50.114;8.662;2022-08-21T03:54:21;10.60;;;6.90;;
40701;SDS011;26387;50.114;8.662;2022-08-21T03:56:47;15.95;;;6.97;;
40701;SDS011;26387;50.114;8.662;2022-08-21T03:59:13;12.05;;;6.93;;
40701;SDS011;26387;50.114;8.662;2022-08-21T04:01:38;19.95;;;7.68;;
40701;SDS011;26387;50.114;8.662;2022-08-21T04:04:05;15.30;;;7.25;;
40701;SDS011;26387;50.114;8.662;2022-08-21T04:06:30;16.10;;;7.30;;
40701;SDS011;26387;50.114;8.662;2022-08-21T04:08:58;16.48;;;7.78;;
40701;SDS011;26387;50.114;8.662;2022-08-21T04:11:23;14.02;;;7.40;;
40701;SDS011;26387;50.114;8.662;2022-08-21T04:13:49;14.25;;;8.10;;
40701;SDS011;26387;50.114;8.662;2022-08-21T04:16:15;13.95;;;7.28;;
40701;SDS011;26387;50.114;8.662;2022-08-21T04:18:40;13.95;;;7.57;;
40701;SDS011;26387;50.114;8.662;2022-08-21T04:21:07;17.52;;;7.78;;
40701;SDS011;26387;50.114;8.662;2022-08-21T04:23:35;13.05;;;7.18;;
40701;SDS011;26387;50.114;8.662;2022-08-21T04:26:00;13.65;;;7.35;;
40701;SDS011;26387;50.114;8.662;2022-08-21T04:28:26;16.83;;;8.90;;
40701;SDS011;26387;50.114;8.662;2022-08-21T04:30:55;18.20;;;8.10;;
40701;SDS011;26387;50.114;8.662;2022-08-21T04:33:21;15.13;;;8.43;;
40701;SDS011;26387;50.114;8.662;2022-08-21T04:35:47;16.70;;;8.43;;
40701;SDS011;26387;50.114;8.662;2022-08-21T04:38:14;18.40;;;8.30;;
40701;SDS011;26387;50.114;8.662;2022-08-21T04:40:40;16.40;;;8.27;;
40701;SDS011;26387;50.114;8.662;2022-08-21T04:43:07;14.40;;;8.20;;
40701;SDS011;26387;50.114;8.662;2022-08-21T04:45:35;14.65;;;8.00;;
40701;SDS011;26387;50.114;8.662;2022-08-21T04:48:14;19.60;;;8.35;;
40701;SDS011;26387;50.114;8.662;2022-08-21T04:56:19;18.80;;;8.52;;
40701;SDS011;26387;50.114;8.662;2022-08-21T04:58:48;16.67;;;8.35;;
40701;SDS011;26387;50.114;8.662;2022-08-21T05:01:18;16.48;;;7.32;;
40701;SDS011;26387;50.114;8.662;2022-08-21T05:03:46;16.38;;;8.77;;
40701;SDS011;26387;50.114;8.662;2022-08-21T05:06:14;18.13;;;8.45;;
40701;SDS011;26387;50.114;8.662;2022-08-21T05:08:42;16.33;;;9.13;;
40701;SDS011;26387;50.114;8.662;2022-08-21T05:11:11;20.83;;;8.60;;
40701;SDS011;26387;50.114;8.662;2022-08-21T05:13:38;16.83;;;7.97;;
40701;SDS011;26387;50.114;8.662;2022-08-21T05:16:05;17.23;;;9.13;;
40701;SDS011;26387;50.114;8.662;2022-08-21T05:18:31;19.08;;;8.75;;
40701;SDS011;26387;50.114;8.662;2022-08-21T05:20:56;17.70;;;8.32;;
40701;SDS011;26387;50.114;8.662;2022-08-21T05:23:22;16.35;;;7.60;;
